Time;durP1;ratioP1;P1;durP2;ratioP2;P2;SDS_P1;SDS_P2;PMS_P1;PMS_P2;Temp;Humidity;BMP_temperature;BMP_pressure;BME280_temperature;BME280_humidity;BME280_pressure;Samples;Min_cycle;Max_cycle;Signal;HPM_P1;HPM_P2
2023/08/11 00:02:13;;;;;;;8.05;2.78;;;15.40;99.90;;;;;;5038697;28;20032;-64
2023/08/11 00:04:38;;;;;;;11.30;2.35;;;15.40;99.90;;;;;;5036130;28;20028;-65
2023/08/11 00:07:04;;;;;;;3.70;2.50;;;15.20;99.90;;;;;;5035889;28;20038;-64
2023/08/11 00:09:30;;;;;;;4.03;2.85;;;15.20;99.90;;;;;;5037624;28;20505;-64
2023/08/11 00:11:55;;;;;;;5.78;2.67;;;15.10;99.90;;;;;;5041675;28;20090;-64
2023/08/11 00:14:21;;;;;;;6.50;3.05;;;15.10;99.90;;;;;;5041491;28;20039;-62
2023/08/11 00:16:46;;;;;;;4.90;3.03;;;15.10;99.90;;;;;;5040249;28;20159;-64
2023/08/11 00:19:12;;;;;;;6.80;2.13;;;15.00;99.90;;;;;;5047162;28;20044;-64
2023/08/11 00:21:37;;;;;;;5.07;2.17;;;15.00;99.90;;;;;;5037860;28;20026;-64
2023/08/11 00:24:03;;;;;;;5.70;2.30;;;15.00;99.90;;;;;;5048855;28;20502;-64
2023/08/11 00:26:30;;;;;;;4.90;2.35;;;15.00;99.90;;;;;;5042492;28;20556;-65
2023/08/11 00:28:56;;;;;;;7.28;2.35;;;15.00;99.90;;;;;;5046164;28;20413;-64
2023/08/11 00:31:22;;;;;;;5.32;2.58;;;14.90;99.90;;;;;;5046798;28;20021;-64
2023/08/11 00:33:48;;;;;;;10.15;2.30;;;14.90;99.90;;;;;;5041937;28;20036;-64
2023/08/11 00:36:17;;;;;;;8.15;2.03;;;15.00;99.90;;;;;;5036137;28;20020;-64
2023/08/11 00:38:43;;;;;;;9.63;2.58;;;15.10;99.90;;;;;;5026723;28;20057;-64
2023/08/11 00:41:08;;;;;;;4.15;2.78;;;15.00;99.90;;;;;;5040922;28;20032;-64
2023/08/11 00:43:34;;;;;;;14.43;2.78;;;15.00;99.90;;;;;;5038053;28;20033;-64
2023/08/11 00:46:12;;;;;;;5.13;2.58;;;14.90;99.90;;;;;;5035565;28;20032;-64
2023/08/11 00:48:40;;;;;;;5.55;2.78;;;14.80;99.90;;;;;;5046409;28;20029;-64
2023/08/11 00:51:06;;;;;;;4.95;2.38;;;14.80;99.90;;;;;;5048284;28;20035;-64
2023/08/11 00:53:36;;;;;;;6.43;2.42;;;14.70;99.90;;;;;;5046118;28;20095;-64
2023/08/11 00:56:03;;;;;;;6.63;3.03;;;14.70;99.90;;;;;;5047864;28;20044;-64
2023/08/11 00:58:30;;;;;;;5.15;2.35;;;14.60;99.90;;;;;;5040606;28;20060;-65
2023/08/11 01:01:00;;;;;;;9.10;2.80;;;14.60;99.90;;;;;;5046096;28;20048;-64
2023/08/11 01:03:26;;;;;;;8.98;2.65;;;14.70;99.90;;;;;;5043474;28;20029;-64
2023/08/11 01:06:16;;;;;;;6.00;2.95;;;14.70;99.90;;;;;;5047179;28;20025;-64
2023/08/11 01:08:52;;;;;;;11.15;2.97;;;14.60;99.90;;;;;;5032675;28;20033;-63
2023/08/11 01:11:26;;;;;;;9.02;2.45;;;14.60;99.90;;;;;;5045259;28;20029;-64
2023/08/11 01:14:02;;;;;;;5.63;2.60;;;14.60;99.90;;;;;;5044505;28;20029;-64
2023/08/11 01:16:29;;;;;;;5.35;3.00;;;14.60;99.90;;;;;;5045710;28;20092;-64
2023/08/11 01:18:55;;;;;;;4.25;2.83;;;14.70;99.90;;;;;;5037856;28;20013;-64
2023/08/11 01:21:24;;;;;;;5.07;2.88;;;14.70;99.90;;;;;;5038404;28;20112;-64
2023/08/11 01:23:49;;;;;;;7.80;2.25;;;14.70;99.90;;;;;;5035654;28;20037;-64
2023/08/11 01:26:15;;;;;;;4.53;2.38;;;14.60;99.90;;;;;;5034150;28;20095;-64
2023/08/11 01:28:42;;;;;;;6.78;2.75;;;14.60;99.90;;;;;;5040091;28;20036;-64
2023/08/11 01:31:08;;;;;;;6.38;3.13;;;14.60;99.90;;;;;;5044344;28;20029;-63
2023/08/11 01:33:34;;;;;;;7.40;2.67;;;14.50;99.90;;;;;;5045045;28;20893;-64
2023/08/11 01:35:59;;;;;;;9.68;2.83;;;14.50;99.90;;;;;;5047883;28;20103;-63
2023/08/11 01:38:25;;;;;;;7.13;2.40;;;14.50;99.90;;;;;;5022539;28;20533;-64
2023/08/11 01:40:50;;;;;;;4.63;3.00;;;14.40;99.90;;;;;;5038109;28;20029;-64
2023/08/11 01:43:17;;;;;;;5.95;3.35;;;14.40;99.90;;;;;;5047493;28;20498;-64
2023/08/11 01:45:48;;;;;;;4.13;2.83;;;14.40;99.90;;;;;;5042207;28;20659;-64
2023/08/11 01:48:16;;;;;;;5.88;2.72;;;14.40;99.90;;;;;;5034455;28;20075;-64
2023/08/11 01:50:42;;;;;;;4.90;2.83;;;14.40;99.90;;;;;;5033709;28;20029;-64
2023/08/11 01:53:08;;;;;;;7.47;2.60;;;14.40;99.90;;;;;;5044071;28;20021;-64
2023/08/11 01:55:35;;;;;;;7.75;2.28;;;14.50;99.90;;;;;;5044701;28;20052;-64
2023/08/11 01:58:01;;;;;;;8.10;2.40;;;14.50;99.90;;;;;;5036979;28;20151;-64
2023/08/11 02:00:27;;;;;;;6.85;2.40;;;14.50;99.90;;;;;;5042976;28;20024;-64
2023/08/11 02:02:52;;;;;;;6.15;2.60;;;14.50;99.90;;;;;;5044838;28;20048;-63
2023/08/11 02:05:18;;;;;;;8.43;2.63;;;14.60;99.90;;;;;;5043656;28;20067;-64
2023/08/11 02:07:45;;;;;;;7.25;2.20;;;14.60;99.90;;;;;;5038591;28;20041;-65
2023/08/11 02:10:11;;;;;;;5.40;2.17;;;14.60;99.90;;;;;;5043576;28;20048;-64
2023/08/11 02:12:38;;;;;;;6.78;2.72;;;14.60;99.90;;;;;;5035726;28;20053;-64
2023/08/11 02:15:05;;;;;;;4.32;2.65;;;14.60;99.90;;;;;;5037862;28;20651;-64
2023/08/11 02:17:31;;;;;;;8.45;2.72;;;14.60;99.90;;;;;;5040078;28;20505;-63
2023/08/11 02:19:58;;;;;;;4.18;2.47;;;14.60;99.90;;;;;;5040162;28;20025;-63
2023/08/11 02:22:24;;;;;;;3.88;2.30;;;14.60;99.90;;;;;;5039408;28;20016;-64
2023/08/11 02:24:49;;;;;;;4.53;2.20;;;14.50;99.90;;;;;;5044008;28;20036;-64
2023/08/11 02:27:15;;;;;;;3.25;2.33;;;14.50;99.90;;;;;;5044880;28;20024;-64
2023/08/11 02:29:41;;;;;;;3.50;2.33;;;14.50;99.90;;;;;;5036217;28;20033;-64
2023/08/11 02:32:07;;;;;;;11.10;2.90;;;14.50;99.90;;;;;;5038507;28;20508;-64
2023/08/11 02:34:33;;;;;;;10.88;2.13;;;14.50;99.90;;;;;;5037872;28;20604;-64
2023/08/11 02:36:59;;;;;;;6.53;2.78;;;14.50;99.90;;;;;;5032985;28;20052;-64
2023/08/11 02:39:25;;;;;;;4.57;2.30;;;14.50;99.90;;;;;;5010859;28;20037;-64
2023/08/11 02:41:50;;;;;;;3.15;1.92;;;14.50;99.90;;;;;;5036976;28;20118;-65
2023/08/11 02:44:16;;;;;;;4.68;2.30;;;14.50;99.90;;;;;;5039731;28;20020;-64
2023/08/11 02:46:41;;;;;;;4.05;1.90;;;14.50;99.90;;;;;;5043640;28;20530;-62
2023/08/11 02:49:07;;;;;;;7.22;2.42;;;14.50;99.90;;;;;;5042746;28;20017;-64
2023/08/11 02:51:34;;;;;;;7.10;2.08;;;14.60;99.90;;;;;;5044166;28;20079;-64
2023/08/11 02:54:00;;;;;;;3.40;2.35;;;14.60;99.90;;;;;;5038027;28;20029;-64
2023/08/11 02:56:26;;;;;;;5.88;2.90;;;14.60;99.90;;;;;;5038974;28;20483;-64
2023/08/11 02:58:52;;;;;;;5.60;2.05;;;14.50;99.90;;;;;;5043719;28;20078;-64
2023/08/11 03:01:18;;;;;;;3.67;1.95;;;14.50;99.90;;;;;;5043281;28;20020;-64
2023/08/11 03:03:43;;;;;;;3.97;2.60;;;14.50;99.90;;;;;;5037199;28;20403;-64
2023/08/11 03:06:10;;;;;;;8.90;2.40;;;14.60;99.90;;;;;;5037436;28;20075;-64
2023/08/11 03:08:37;;;;;;;4.43;1.95;;;14.60;99.90;;;;;;5037308;28;20020;-64
2023/08/11 03:11:03;;;;;;;4.60;2.15;;;14.60;99.90;;;;;;5037328;28;20025;-64
2023/08/11 03:13:29;;;;;;;7.07;1.90;;;14.60;99.90;;;;;;5040066;28;20191;-64
2023/08/11 03:15:55;;;;;;;2.80;1.70;;;14.60;99.90;;;;;;5046146;28;20032;-64
2023/08/11 03:18:22;;;;;;;6.30;2.80;;;14.60;99.90;;;;;;5046021;28;20108;-64
2023/08/11 03:20:47;;;;;;;2.35;1.63;;;14.60;99.90;;;;;;5034685;28;20032;-64
2023/08/11 03:23:13;;;;;;;5.07;2.15;;;14.60;99.90;;;;;;5043873;28;20032;-64
2023/08/11 03:25:39;;;;;;;3.47;2.42;;;14.50;99.90;;;;;;5040008;28;20437;-65
2023/08/11 03:28:05;;;;;;;5.63;1.95;;;14.50;99.90;;;;;;5044430;28;20053;-64
2023/08/11 03:30:31;;;;;;;4.85;1.90;;;14.40;99.90;;;;;;5037933;28;20087;-64
2023/08/11 03:32:57;;;;;;;5.63;2.17;;;14.40;99.90;;;;;;5041887;28;20028;-63
2023/08/11 03:35:22;;;;;;;5.40;2.03;;;14.30;99.90;;;;;;5043958;28;20103;-62
2023/08/11 03:37:48;;;;;;;9.32;3.50;;;14.20;99.90;;;;;;5040284;28;20088;-64
2023/08/11 03:40:15;;;;;;;3.10;1.83;;;14.20;99.90;;;;;;5015333;28;20053;-64
2023/08/11 03:42:42;;;;;;;4.40;2.05;;;14.20;99.90;;;;;;5040590;28;20503;-62
2023/08/11 03:45:12;;;;;;;5.40;2.15;;;14.20;99.90;;;;;;5042823;28;20059;-64
2023/08/11 03:47:39;;;;;;;4.63;2.20;;;14.20;99.90;;;;;;5043966;28;20028;-64
2023/08/11 03:50:06;;;;;;;4.82;2.90;;;14.20;99.90;;;;;;5038906;28;20032;-64
2023/08/11 03:52:32;;;;;;;10.13;2.72;;;14.10;99.90;;;;;;5049409;28;20060;-64
2023/08/11 03:54:58;;;;;;;2.70;2.17;;;14.10;99.90;;;;;;5041928;28;20091;-64
2023/08/11 03:57:25;;;;;;;4.10;1.77;;;14.10;99.90;;;;;;5047354;28;20490;-63
2023/08/11 03:59:51;;;;;;;5.47;1.90;;;14.10;99.90;;;;;;5036354;28;20017;-64
2023/08/11 04:02:17;;;;;;;7.30;2.75;;;14.20;99.90;;;;;;5042701;28;20032;-64
2023/08/11 04:04:43;;;;;;;5.15;2.08;;;14.20;99.90;;;;;;5037084;28;20052;-64
2023/08/11 04:07:09;;;;;;;4.90;2.15;;;14.30;99.90;;;;;;5039693;28;20493;-64
2023/08/11 04:09:34;;;;;;;9.50;2.33;;;14.30;99.90;;;;;;5037193;28;20498;-64
2023/08/11 04:12:00;;;;;;;5.05;1.70;;;14.30;99.90;;;;;;5040834;28;20056;-64
2023/08/11 04:14:25;;;;;;;5.50;2.25;;;14.30;99.90;;;;;;5039611;28;20064;-64
2023/08/11 04:16:51;;;;;;;3.05;1.63;;;14.40;99.90;;;;;;5045659;28;20055;-64
2023/08/11 04:19:17;;;;;;;2.38;1.58;;;14.40;99.90;;;;;;5041978;28;20025;-64
2023/08/11 04:21:42;;;;;;;4.00;1.83;;;14.40;99.90;;;;;;5038847;28;20037;-64
2023/08/11 04:24:08;;;;;;;4.82;1.67;;;14.50;99.90;;;;;;5040533;28;20025;-64
2023/08/11 04:26:34;;;;;;;8.10;1.98;;;14.50;99.90;;;;;;5040685;28;20096;-64
2023/08/11 04:29:04;;;;;;;2.67;1.60;;;14.60;99.90;;;;;;5041660;28;20250;-64
2023/08/11 04:31:30;;;;;;;3.55;1.77;;;14.60;99.90;;;;;;5039757;28;20115;-64
2023/08/11 04:33:56;;;;;;;7.07;1.58;;;14.60;99.90;;;;;;5043695;28;20036;-64
2023/08/11 04:36:22;;;;;;;4.32;1.85;;;14.80;99.90;;;;;;5047025;28;20731;-64
2023/08/11 04:38:48;;;;;;;7.47;2.00;;;14.80;99.90;;;;;;5049994;28;20510;-64
2023/08/11 04:41:13;;;;;;;4.07;2.20;;;14.80;99.90;;;;;;5017596;28;20056;-63
2023/08/11 04:43:39;;;;;;;5.80;2.08;;;14.80;99.90;;;;;;5044252;28;20029;-64
2023/08/11 04:46:05;;;;;;;2.67;1.48;;;14.90;99.90;;;;;;5050512;28;20036;-64
2023/08/11 04:48:31;;;;;;;3.88;1.88;;;15.00;99.90;;;;;;5051561;28;20028;-64
2023/08/11 04:50:58;;;;;;;4.93;2.05;;;15.10;99.90;;;;;;5042107;28;20486;-64
2023/08/11 04:53:24;;;;;;;4.38;1.77;;;15.20;99.90;;;;;;5038462;28;20024;-64
2023/08/11 04:55:51;;;;;;;2.03;1.58;;;15.20;99.90;;;;;;5044438;28;20136;-65
2023/08/11 04:58:16;;;;;;;5.28;1.83;;;15.30;99.90;;;;;;5048525;28;20186;-64
2023/08/11 05:00:43;;;;;;;2.88;1.52;;;15.40;99.90;;;;;;5041258;28;20104;-60
2023/08/11 05:03:08;;;;;;;4.78;2.20;;;15.50;99.90;;;;;;5045255;28;20477;-64
2023/08/11 05:05:34;;;;;;;3.95;1.30;;;15.60;99.90;;;;;;5048224;28;20029;-65
2023/08/11 05:08:00;;;;;;;5.95;2.13;;;15.80;99.90;;;;;;5046513;28;20017;-64
2023/08/11 05:10:26;;;;;;;2.88;1.58;;;16.00;99.90;;;;;;5038210;28;20029;-64
2023/08/11 05:12:51;;;;;;;3.13;1.50;;;16.70;99.90;;;;;;5038664;28;20038;-64
2023/08/11 05:15:17;;;;;;;5.22;1.55;;;17.70;99.90;;;;;;5044145;28;20383;-64
2023/08/11 05:17:43;;;;;;;2.05;1.48;;;18.90;99.90;;;;;;5040479;28;20025;-65
2023/08/11 05:20:10;;;;;;;7.40;1.40;;;19.70;99.90;;;;;;5037663;28;20029;-65
2023/08/11 05:22:36;;;;;;;4.05;1.20;;;20.50;99.90;;;;;;5043044;28;20025;-65
2023/08/11 05:25:05;;;;;;;2.97;1.67;;;21.30;99.90;;;;;;5041309;28;20483;-64
2023/08/11 05:27:31;;;;;;;3.05;1.45;;;21.60;99.90;;;;;;5048977;28;20031;-65
2023/08/11 05:29:57;;;;;;;2.08;1.25;;;22.10;99.90;;;;;;5035122;28;20036;-65
2023/08/11 05:32:26;;;;;;;5.05;1.50;;;22.70;99.10;;;;;;5041853;28;20420;-65
2023/08/11 05:34:52;;;;;;;4.28;1.30;;;23.00;97.00;;;;;;5044307;28;20128;-64
2023/08/11 05:37:18;;;;;;;5.15;1.30;;;23.20;96.60;;;;;;5041956;28;20025;-65
2023/08/11 05:39:44;;;;;;;5.88;1.70;;;23.50;96.00;;;;;;5020744;28;28558;-65
2023/08/11 05:42:09;;;;;;;2.20;1.25;;;23.70;95.70;;;;;;5037031;28;20107;-64
2023/08/11 05:44:35;;;;;;;3.10;1.23;;;24.20;94.40;;;;;;5044943;28;20071;-64
2023/08/11 05:47:01;;;;;;;6.40;1.33;;;24.20;91.90;;;;;;5031443;28;20080;-64
2023/08/11 05:49:27;;;;;;;4.65;1.38;;;24.20;92.50;;;;;;5040913;28;20029;-65
2023/08/11 05:51:54;;;;;;;2.55;1.00;;;24.30;93.60;;;;;;5032055;28;20382;-65
2023/08/11 05:54:19;;;;;;;2.30;1.23;;;24.30;91.50;;;;;;5045147;28;20025;-65
2023/08/11 05:56:45;;;;;;;2.47;1.20;;;24.70;92.50;;;;;;5040072;28;20709;-64
2023/08/11 05:59:11;;;;;;;3.03;1.30;;;24.80;91.40;;;;;;5036754;28;20025;-65
2023/08/11 06:01:37;;;;;;;6.07;1.30;;;25.40;90.00;;;;;;5040747;28;20021;-64
2023/08/11 06:04:03;;;;;;;7.40;1.20;;;26.00;87.30;;;;;;5037396;28;20172;-64
2023/08/11 06:06:28;;;;;;;3.53;1.48;;;26.20;85.40;;;;;;5039612;28;20056;-65
2023/08/11 06:08:55;;;;;;;4.63;1.55;;;26.50;84.70;;;;;;5042932;28;20036;-64
2023/08/11 06:11:21;;;;;;;3.55;1.58;;;27.00;84.00;;;;;;5040347;28;20021;-64
2023/08/11 06:13:47;;;;;;;2.60;1.38;;;26.70;80.80;;;;;;5039838;28;20517;-65
2023/08/11 06:16:12;;;;;;;2.72;1.50;;;27.00;82.20;;;;;;5040806;28;20029;-65
2023/08/11 06:18:38;;;;;;;3.20;1.50;;;27.20;80.90;;;;;;5032452;28;20044;-64
2023/08/11 06:21:05;;;;;;;4.30;1.70;;;27.50;77.70;;;;;;5032956;28;20045;-65
2023/08/11 06:23:31;;;;;;;4.25;1.55;;;27.40;80.50;;;;;;5034094;28;20028;-65
2023/08/11 06:25:57;;;;;;;6.50;1.60;;;27.90;77.90;;;;;;5036038;28;20017;-65
2023/08/11 06:28:23;;;;;;;4.43;1.70;;;28.20;77.30;;;;;;5038395;28;20037;-65
2023/08/11 06:30:49;;;;;;;2.22;1.30;;;28.20;78.60;;;;;;5039720;28;20486;-65
2023/08/11 06:33:14;;;;;;;2.58;1.35;;;28.10;76.30;;;;;;5034168;28;20033;-65
2023/08/11 06:35:42;;;;;;;3.97;1.33;;;28.30;77.60;;;;;;5034572;28;20029;-64
2023/08/11 06:38:08;;;;;;;3.63;1.20;;;28.90;76.90;;;;;;5035075;28;20031;-65
2023/08/11 06:40:34;;;;;;;2.80;1.40;;;29.30;74.70;;;;;;5023193;28;20128;-65
2023/08/11 06:43:00;;;;;;;5.50;1.65;;;29.00;75.50;;;;;;5044090;28;20029;-64
2023/08/11 06:45:25;;;;;;;1.90;1.13;;;30.10;73.90;;;;;;5042594;28;20391;-65
2023/08/11 06:47:51;;;;;;;9.02;1.30;;;30.70;71.20;;;;;;5045666;28;20049;-64
2023/08/11 06:50:17;;;;;;;3.83;1.05;;;31.00;71.80;;;;;;5041546;28;20024;-65
2023/08/11 06:52:43;;;;;;;3.28;1.63;;;30.90;69.70;;;;;;5044061;28;20064;-62
2023/08/11 06:55:08;;;;;;;2.78;1.20;;;30.40;70.70;;;;;;5043253;28;20063;-64
2023/08/11 06:57:36;;;;;;;2.70;1.23;;;31.00;71.10;;;;;;5033970;28;20026;-65
2023/08/11 07:00:02;;;;;;;6.20;1.23;;;31.00;70.30;;;;;;5040158;28;21822;-65
2023/08/11 07:02:28;;;;;;;4.90;1.80;;;30.80;69.30;;;;;;5040656;28;20025;-64
2023/08/11 07:04:54;;;;;;;2.05;1.35;;;32.30;67.90;;;;;;5045242;28;20032;-65
2023/08/11 07:07:19;;;;;;;2.80;1.23;;;31.20;67.80;;;;;;5043607;28;20032;-65
2023/08/11 07:09:45;;;;;;;2.05;1.27;;;32.20;67.70;;;;;;5034647;28;20111;-65
2023/08/11 07:12:10;;;;;;;6.65;1.77;;;31.90;69.40;;;;;;5037900;28;20034;-65
2023/08/11 07:14:36;;;;;;;2.53;1.50;;;32.20;66.40;;;;;;5036788;28;20132;-65
2023/08/11 07:17:01;;;;;;;6.40;1.65;;;32.10;66.80;;;;;;5039554;28;20027;-65
2023/08/11 07:19:27;;;;;;;3.13;1.33;;;31.40;66.60;;;;;;5039399;28;20033;-65
2023/08/11 07:21:53;;;;;;;8.38;1.38;;;32.20;67.50;;;;;;5046492;28;20029;-65
2023/08/11 07:24:18;;;;;;;4.72;1.35;;;32.60;66.10;;;;;;5034440;28;20490;-65
2023/08/11 07:26:44;;;;;;;6.00;1.27;;;32.70;66.40;;;;;;5035214;28;20045;-63
2023/08/11 07:29:10;;;;;;;4.90;1.20;;;32.20;66.60;;;;;;5040108;28;20044;-65
2023/08/11 07:31:35;;;;;;;3.97;1.33;;;32.60;66.30;;;;;;5046711;28;20390;-64
2023/08/11 07:34:01;;;;;;;1.90;1.13;;;32.20;66.90;;;;;;5042029;28;20371;-65
2023/08/11 07:36:26;;;;;;;2.42;1.30;;;32.40;67.00;;;;;;5036984;28;20032;-65
2023/08/11 07:38:52;;;;;;;1.73;1.50;;;32.20;66.70;;;;;;5041078;28;20020;-65
2023/08/11 07:41:17;;;;;;;2.10;1.20;;;32.60;69.00;;;;;;5014253;28;20056;-65
2023/08/11 07:43:43;;;;;;;2.10;1.30;;;32.70;66.40;;;;;;5039606;28;20116;-65
2023/08/11 07:46:09;;;;;;;5.18;1.50;;;33.30;65.60;;;;;;5039219;28;20036;-65
2023/08/11 07:48:34;;;;;;;2.00;1.45;;;33.40;65.30;;;;;;5037200;28;20100;-65
2023/08/11 07:51:00;;;;;;;5.43;1.73;;;33.20;67.30;;;;;;5039096;28;20463;-65
2023/08/11 07:53:25;;;;;;;1.90;1.17;;;33.50;65.20;;;;;;5035861;28;20025;-65
2023/08/11 07:55:51;;;;;;;2.90;1.50;;;33.50;66.60;;;;;;5043291;28;20031;-65
2023/08/11 07:58:16;;;;;;;2.08;1.55;;;33.60;65.20;;;;;;5034171;28;20032;-65
2023/08/11 08:00:42;;;;;;;3.90;1.83;;;33.90;66.00;;;;;;5033616;28;20033;-64
2023/08/11 08:03:08;;;;;;;1.65;1.15;;;33.90;64.00;;;;;;5035135;28;20029;-65
2023/08/11 08:05:33;;;;;;;3.60;1.20;;;34.50;64.80;;;;;;5039504;28;20120;-65
2023/08/11 08:07:59;;;;;;;4.00;1.70;;;35.30;62.90;;;;;;5041738;28;20083;-65
2023/08/11 08:10:25;;;;;;;2.15;1.52;;;35.80;62.50;;;;;;5040946;28;20025;-65
2023/08/11 08:12:51;;;;;;;1.73;1.40;;;35.00;62.40;;;;;;5039892;28;20033;-65
2023/08/11 08:15:17;;;;;;;3.58;1.40;;;34.40;64.90;;;;;;5046401;28;20474;-65
2023/08/11 08:17:43;;;;;;;2.67;1.77;;;34.10;64.40;;;;;;5039886;28;20037;-66
2023/08/11 08:20:10;;;;;;;6.05;1.77;;;33.60;62.80;;;;;;5043722;28;20029;-66
2023/08/11 08:22:37;;;;;;;2.53;1.80;;;34.00;64.40;;;;;;5041171;28;20387;-66
2023/08/11 08:25:06;;;;;;;8.23;1.83;;;34.60;64.30;;;;;;5042873;28;20114;-65
2023/08/11 08:27:33;;;;;;;1.90;1.60;;;34.80;63.90;;;;;;5040400;28;20032;-66
2023/08/11 08:29:59;;;;;;;4.05;1.85;;;34.40;63.00;;;;;;5041628;28;20030;-66
2023/08/11 08:32:24;;;;;;;4.63;1.55;;;34.80;62.50;;;;;;5039328;28;20079;-65
2023/08/11 08:34:50;;;;;;;3.67;1.58;;;35.50;63.70;;;;;;5037045;28;20033;-65
2023/08/11 08:37:19;;;;;;;3.83;1.73;;;36.00;60.60;;;;;;5042991;28;20033;-65
2023/08/11 08:39:46;;;;;;;2.20;1.40;;;36.20;61.00;;;;;;5051567;28;20167;-65
2023/08/11 08:42:13;;;;;;;2.78;1.60;;;35.90;60.60;;;;;;5014635;28;20124;-64
2023/08/11 08:44:39;;;;;;;2.88;1.55;;;35.70;59.80;;;;;;5036660;28;20437;-65
2023/08/11 08:47:07;;;;;;;2.60;1.60;;;35.80;61.00;;;;;;5040967;28;20021;-66
2023/08/11 08:49:36;;;;;;;2.47;1.50;;;35.10;62.20;;;;;;5036168;28;20112;-65
2023/08/11 08:52:02;;;;;;;3.85;1.50;;;34.50;61.80;;;;;;5030569;28;20026;-65
2023/08/11 08:54:28;;;;;;;2.00;1.65;;;34.40;64.30;;;;;;5048639;28;20039;-66
2023/08/11 08:56:56;;;;;;;4.47;1.70;;;34.50;63.70;;;;;;5040970;28;20025;-65
2023/08/11 08:59:22;;;;;;;3.28;1.75;;;34.90;63.00;;;;;;5040724;28;20177;-65
2023/08/11 09:01:49;;;;;;;2.47;1.48;;;34.40;60.90;;;;;;5041878;28;20025;-65
2023/08/11 09:04:16;;;;;;;5.22;1.75;;;34.50;64.20;;;;;;5049689;28;20510;-65
2023/08/11 09:06:43;;;;;;;2.97;1.83;;;35.00;61.90;;;;;;5040462;28;20038;-65
2023/08/11 09:09:09;;;;;;;6.18;1.83;;;35.50;60.80;;;;;;5052951;28;20026;-65
2023/08/11 09:11:35;;;;;;;3.55;1.88;;;35.40;61.10;;;;;;5044984;28;20021;-66
2023/08/11 09:14:08;;;;;;;5.20;1.80;;;34.80;62.20;;;;;;5041908;28;20431;-66
2023/08/11 09:16:35;;;;;;;3.15;1.73;;;35.30;64.60;;;;;;5049377;28;20067;-65
2023/08/11 09:19:02;;;;;;;3.13;1.48;;;35.30;63.00;;;;;;5042540;28;20018;-66
2023/08/11 09:21:28;;;;;;;8.50;1.70;;;35.30;61.10;;;;;;5043888;28;20033;-65
2023/08/11 09:23:55;;;;;;;7.03;1.67;;;34.90;62.80;;;;;;5043033;28;20029;-66
2023/08/11 09:26:21;;;;;;;2.78;1.77;;;35.20;61.80;;;;;;5034124;28;20045;-66
2023/08/11 09:28:48;;;;;;;2.90;1.80;;;34.70;60.90;;;;;;5038033;28;20150;-65
2023/08/11 09:31:14;;;;;;;5.57;1.95;;;34.60;61.10;;;;;;5042810;28;20549;-64
2023/08/11 09:33:40;;;;;;;3.22;1.75;;;34.30;63.60;;;;;;5036721;28;20201;-65
2023/08/11 09:36:06;;;;;;;3.63;1.77;;;34.00;64.20;;;;;;5045501;28;20045;-65
2023/08/11 09:38:31;;;;;;;3.88;2.10;;;34.00;62.50;;;;;;5032008;28;20380;-65
2023/08/11 09:41:07;;;;;;;6.25;3.05;;;34.40;62.20;;;;;;5042592;28;20029;-65
2023/08/11 09:43:33;;;;;;;2.80;1.90;;;35.30;62.00;;;;;;5014299;28;20068;-65
2023/08/11 09:45:59;;;;;;;3.08;1.75;;;34.40;61.10;;;;;;5037740;28;20045;-65
2023/08/11 09:48:27;;;;;;;2.90;1.77;;;34.00;62.80;;;;;;5039427;28;20028;-65
2023/08/11 09:50:55;;;;;;;4.35;2.40;;;33.90;62.80;;;;;;5040088;28;20037;-65
2023/08/11 09:53:22;;;;;;;3.25;2.03;;;34.10;64.40;;;;;;5043433;28;20031;-65
2023/08/11 09:55:55;;;;;;;4.53;1.70;;;34.50;63.30;;;;;;5039466;28;20032;-65
2023/08/11 09:58:26;;;;;;;2.35;1.95;;;35.30;62.00;;;;;;5035544;28;20030;-65
2023/08/11 10:00:54;;;;;;;3.47;1.92;;;34.90;61.50;;;;;;5040920;28;20026;-65
2023/08/11 10:03:28;;;;;;;4.32;1.80;;;35.10;62.00;;;;;;5038961;28;20040;-65
2023/08/11 10:05:57;;;;;;;3.33;1.77;;;35.60;59.70;;;;;;5041184;28;20026;-65
2023/08/11 10:08:25;;;;;;;6.22;2.10;;;34.90;61.00;;;;;;5040878;28;20096;-65
2023/08/11 10:10:50;;;;;;;2.42;1.70;;;34.30;61.10;;;;;;5042728;28;20029;-64
2023/08/11 10:13:21;;;;;;;4.45;2.00;;;34.10;60.90;;;;;;5040784;28;20412;-65
2023/08/11 10:15:48;;;;;;;3.80;1.95;;;33.50;62.50;;;;;;5048297;28;20025;-64
2023/08/11 10:18:16;;;;;;;2.63;1.85;;;33.20;64.50;;;;;;5039726;28;20025;-65
2023/08/11 10:20:41;;;;;;;5.03;2.08;;;32.40;65.00;;;;;;5032944;28;20040;-64
2023/08/11 10:23:08;;;;;;;2.80;1.70;;;32.20;64.40;;;;;;5036757;28;20021;-62
2023/08/11 10:25:35;;;;;;;3.20;1.90;;;32.20;64.90;;;;;;5037187;28;20040;-65
2023/08/11 10:28:02;;;;;;;10.02;3.17;;;31.80;66.10;;;;;;5035619;28;20074;-64
2023/08/11 10:30:28;;;;;;;2.05;1.60;;;31.90;64.20;;;;;;5033753;28;20035;-64
2023/08/11 10:33:06;;;;;;;4.13;1.88;;;31.90;63.20;;;;;;5037646;28;20495;-64
2023/08/11 10:35:53;;;;;;;5.03;2.10;;;31.80;64.20;;;;;;5040332;28;20026;-64
2023/08/11 10:38:26;;;;;;;4.47;2.05;;;31.70;65.00;;;;;;5037179;28;20033;-64
2023/08/11 10:41:15;;;;;;;2.05;1.52;;;31.60;64.80;;;;;;5041929;28;20083;-64
2023/08/11 10:43:47;;;;;;;2.70;1.73;;;31.60;65.30;;;;;;5026496;28;20056;-64
2023/08/11 10:46:26;;;;;;;4.68;1.70;;;31.50;65.80;;;;;;5041997;28;20043;-64
2023/08/11 10:48:53;;;;;;;3.35;1.85;;;31.40;64.70;;;;;;5040917;28;20108;-64
2023/08/11 10:51:32;;;;;;;4.00;1.80;;;30.90;64.10;;;;;;5039481;28;20037;-63
2023/08/11 10:54:08;;;;;;;5.05;1.52;;;31.20;66.60;;;;;;5036272;28;20095;-64
2023/08/11 10:56:36;;;;;;;2.40;1.55;;;30.80;64.90;;;;;;5044620;28;20136;-64
2023/08/11 10:59:19;;;;;;;4.07;1.80;;;30.80;63.70;;;;;;5044444;28;20107;-64
2023/08/11 11:01:49;;;;;;;3.08;1.73;;;30.70;66.10;;;;;;5043726;28;20038;-63
2023/08/11 11:04:16;;;;;;;3.92;2.20;;;30.60;65.10;;;;;;5039797;28;20032;-64
2023/08/11 11:06:45;;;;;;;5.30;2.30;;;30.30;65.00;;;;;;5036441;28;20021;-64
2023/08/11 11:09:11;;;;;;;6.18;1.88;;;30.20;66.10;;;;;;5042375;28;20383;-64
2023/08/11 11:11:37;;;;;;;2.72;1.83;;;30.10;67.40;;;;;;5030642;28;20218;-64
2023/08/11 11:14:07;;;;;;;3.50;1.98;;;30.20;68.50;;;;;;5044073;28;20103;-65
2023/08/11 11:16:34;;;;;;;3.15;2.05;;;30.40;67.50;;;;;;5043806;28;20029;-64
2023/08/11 11:19:01;;;;;;;7.80;1.50;;;30.40;68.20;;;;;;5043702;28;20033;-64
2023/08/11 11:21:27;;;;;;;5.32;2.00;;;30.40;69.30;;;;;;5031141;28;20049;-64
2023/08/11 11:23:53;;;;;;;2.90;1.90;;;30.20;65.50;;;;;;5041124;28;20497;-64
2023/08/11 11:26:29;;;;;;;4.43;1.75;;;30.30;65.70;;;;;;5033702;28;20021;-64
2023/08/11 11:28:57;;;;;;;6.72;1.70;;;30.40;65.40;;;;;;5039862;28;20571;-64
2023/08/11 11:31:25;;;;;;;5.18;2.42;;;30.00;65.20;;;;;;5029561;28;20041;-64
2023/08/11 11:33:51;;;;;;;2.92;1.90;;;30.10;68.40;;;;;;5039567;28;20033;-64
2023/08/11 11:36:18;;;;;;;3.47;1.88;;;29.80;67.90;;;;;;5037921;28;20207;-64
2023/08/11 11:38:45;;;;;;;4.43;1.83;;;30.10;67.90;;;;;;5033385;28;20037;-64
2023/08/11 11:41:15;;;;;;;3.55;1.90;;;30.30;67.50;;;;;;5039881;28;20040;-63
2023/08/11 11:43:42;;;;;;;6.05;2.10;;;30.30;66.30;;;;;;5020045;28;20509;-64
2023/08/11 11:46:14;;;;;;;3.00;1.80;;;30.30;67.60;;;;;;5048570;28;20029;-64
2023/08/11 11:48:50;;;;;;;6.95;2.00;;;30.30;68.20;;;;;;5036672;28;20036;-64
2023/08/11 11:51:18;;;;;;;3.03;1.73;;;30.30;67.40;;;;;;5046191;28;20506;-63
2023/08/11 11:53:44;;;;;;;3.15;2.00;;;29.90;68.40;;;;;;5047440;28;20051;-64
2023/08/11 11:56:17;;;;;;;5.78;1.80;;;30.00;69.60;;;;;;5050433;28;20409;-64
2023/08/11 11:58:43;;;;;;;2.77;1.77;;;30.00;67.60;;;;;;5040803;28;20681;-64
2023/08/11 12:01:17;;;;;;;3.03;1.63;;;30.00;68.80;;;;;;5044847;28;20032;-64
2023/08/11 12:03:47;;;;;;;2.38;1.55;;;30.00;68.50;;;;;;5041003;28;20375;-64
2023/08/11 12:06:13;;;;;;;3.85;1.90;;;30.10;70.20;;;;;;5041659;28;20021;-64
2023/08/11 12:08:41;;;;;;;4.63;2.08;;;30.10;67.50;;;;;;5040684;28;20025;-64
2023/08/11 12:11:10;;;;;;;3.42;1.88;;;30.00;69.20;;;;;;5044217;28;20402;-64
2023/08/11 12:13:41;;;;;;;5.97;1.80;;;30.10;68.60;;;;;;5031967;28;20044;-64
2023/08/11 12:16:07;;;;;;;3.65;1.90;;;30.10;68.30;;;;;;5039571;28;20029;-63
2023/08/11 12:18:34;;;;;;;2.90;1.60;;;30.10;67.90;;;;;;5042863;28;20037;-64
2023/08/11 12:21:01;;;;;;;3.17;2.08;;;30.10;67.90;;;;;;5041510;28;20359;-64
2023/08/11 12:23:27;;;;;;;5.07;2.10;;;30.10;68.50;;;;;;5038229;28;20021;-64
2023/08/11 12:25:53;;;;;;;2.65;2.03;;;30.10;67.30;;;;;;5040613;28;20503;-64
2023/08/11 12:28:20;;;;;;;3.83;1.70;;;30.10;68.50;;;;;;5042979;28;20079;-64
2023/08/11 12:30:45;;;;;;;6.57;1.67;;;30.00;68.70;;;;;;5038134;28;20103;-64
2023/08/11 12:33:11;;;;;;;2.88;1.88;;;29.90;68.20;;;;;;5040719;28;20513;-64
2023/08/11 12:35:36;;;;;;;2.83;1.70;;;29.70;70.00;;;;;;5048644;28;20025;-64
2023/08/11 12:38:04;;;;;;;3.38;2.05;;;29.70;70.00;;;;;;5033996;28;20043;-64
2023/08/11 12:40:30;;;;;;;2.92;1.60;;;29.80;70.70;;;;;;5033266;28;20025;-63
2023/08/11 12:42:56;;;;;;;4.45;2.03;;;29.90;71.50;;;;;;5008574;28;20063;-64
2023/08/11 12:45:21;;;;;;;4.07;2.22;;;29.90;69.10;;;;;;5033022;28;20117;-64